createdAt,value
2023-03-12T00:02:16.421Z,56.17
2023-03-12T00:04:45.383Z,56.33
2023-03-12T00:07:12.915Z,57.95
2023-03-12T00:09:40.482Z,57.98
2023-03-12T00:12:09.105Z,57.36
2023-03-12T00:14:37.415Z,58.70
2023-03-12T00:17:05.059Z,58.76
2023-03-12T00:19:32.639Z,57.31
2023-03-12T00:22:01.543Z,57.26
2023-03-12T00:24:29.096Z,57.33
2023-03-12T00:26:56.657Z,57.65
2023-03-12T00:29:24.247Z,57.49
2023-03-12T00:31:52.254Z,57.60
2023-03-12T00:34:19.808Z,57.45
2023-03-12T00:36:47.333Z,57.58
2023-03-12T00:39:16.191Z,57.56
2023-03-12T00:41:43.718Z,57.62
2023-03-12T00:44:11.248Z,57.74
2023-03-12T00:46:38.803Z,57.90
2023-03-12T00:49:06.345Z,58.08
2023-03-12T00:51:34.106Z,58.06
2023-03-12T00:54:01.686Z,57.98
2023-03-12T00:56:30.586Z,58.13
2023-03-12T00:58:58.206Z,57.87
2023-03-12T01:01:27.579Z,58.07
2023-03-12T01:03:55.808Z,58.14
2023-03-12T01:06:23.407Z,58.06
2023-03-12T01:08:51.000Z,58.07
2023-03-12T01:11:20.610Z,58.39
2023-03-12T01:13:49.917Z,59.09
2023-03-12T01:16:17.503Z,59.92
2023-03-12T01:18:45.319Z,60.67
2023-03-12T01:21:12.964Z,60.00
2023-03-12T01:23:40.470Z,59.18
2023-03-12T01:26:08.131Z,58.16
2023-03-12T01:28:35.632Z,58.04
2023-03-12T01:31:09.184Z,57.71
2023-03-12T01:33:36.720Z,58.11
2023-03-12T01:36:04.564Z,58.73
2023-03-12T01:38:32.195Z,58.41
2023-03-12T01:40:59.732Z,58.42
2023-03-12T01:43:30.607Z,57.71
2023-03-12T01:46:06.887Z,57.15
2023-03-12T01:48:40.960Z,57.67
2023-03-12T01:51:11.483Z,58.08
2023-03-12T01:53:39.870Z,57.96
2023-03-12T01:56:08.994Z,58.13
2023-03-12T01:58:39.397Z,58.06
2023-03-12T02:01:07.666Z,57.82
2023-03-12T02:03:36.956Z,58.90
2023-03-12T02:06:09.762Z,58.93
2023-03-12T02:08:38.139Z,59.21
2023-03-12T02:11:06.097Z,58.71
2023-03-12T02:13:34.046Z,58.85
2023-03-12T02:16:02.040Z,58.82
2023-03-12T02:18:29.962Z,58.63
2023-03-12T02:21:07.313Z,58.69
2023-03-12T02:23:41.229Z,57.66
2023-03-12T02:26:12.283Z,57.59
2023-03-12T02:28:43.940Z,57.62
2023-03-12T02:31:14.777Z,57.90
2023-03-12T02:33:42.610Z,57.92
2023-03-12T02:36:10.610Z,57.80
2023-03-12T02:38:42.320Z,58.37
2023-03-12T02:41:15.910Z,60.60
2023-03-12T02:43:47.026Z,58.35
2023-03-12T02:46:15.587Z,59.67
2023-03-12T02:48:43.181Z,58.44
2023-03-12T02:51:10.954Z,59.05
2023-03-12T02:53:38.754Z,59.52
2023-03-12T02:56:07.537Z,60.44
2023-03-12T02:58:37.441Z,59.45
2023-03-12T03:01:05.461Z,60.75
2023-03-12T03:03:32.986Z,61.42
2023-03-12T03:06:00.534Z,60.55
2023-03-12T03:08:28.036Z,60.05
2023-03-12T03:10:55.544Z,58.37
2023-03-12T03:13:23.077Z,58.22
2023-03-12T03:15:51.944Z,57.29
2023-03-12T03:18:19.458Z,58.00
2023-03-12T03:20:47.013Z,59.48
2023-03-12T03:23:14.481Z,57.69
2023-03-12T03:25:41.991Z,57.33
2023-03-12T03:28:09.529Z,57.12
2023-03-12T03:30:37.041Z,57.36
2023-03-12T03:33:06.445Z,57.16
2023-03-12T03:35:34.905Z,58.56
2023-03-12T03:38:02.697Z,59.93
2023-03-12T03:40:30.256Z,58.40
2023-03-12T03:42:57.772Z,57.53
2023-03-12T03:45:27.134Z,57.41
2023-03-12T03:47:54.691Z,56.90
2023-03-12T03:50:23.650Z,57.02
2023-03-12T03:52:51.260Z,57.37
2023-03-12T03:55:18.918Z,57.48
2023-03-12T03:57:46.450Z,57.18
2023-03-12T04:00:17.921Z,57.24
2023-03-12T04:02:45.707Z,57.16
2023-03-12T04:05:13.327Z,56.92
2023-03-12T04:07:42.365Z,57.13
2023-03-12T04:10:11.196Z,56.81
2023-03-12T04:12:38.734Z,56.93
2023-03-12T04:15:07.608Z,56.65
2023-03-12T04:17:35.145Z,57.04
2023-03-12T04:20:02.868Z,56.63
2023-03-12T04:22:30.375Z,56.63
2023-03-12T04:24:59.395Z,56.63
2023-03-12T04:27:27.200Z,56.51
2023-03-12T04:29:59.223Z,56.42
2023-03-12T04:32:30.304Z,57.27
2023-03-12T04:34:58.342Z,56.75
2023-03-12T04:37:27.111Z,56.89
2023-03-12T04:39:59.214Z,56.54
2023-03-12T04:42:29.637Z,56.80
2023-03-12T04:44:57.710Z,56.28
2023-03-12T04:47:28.027Z,56.60
2023-03-12T04:50:01.552Z,56.75
2023-03-12T04:52:29.660Z,56.39
2023-03-12T04:54:59.426Z,56.93
2023-03-12T04:57:28.493Z,56.47
2023-03-12T04:59:56.559Z,56.34
2023-03-12T05:02:27.843Z,56.60
2023-03-12T05:04:58.130Z,56.92
2023-03-12T05:07:26.959Z,56.58
2023-03-12T05:09:54.936Z,57.29
2023-03-12T05:12:23.998Z,57.44
2023-03-12T05:14:53.390Z,56.84
2023-03-12T05:17:21.054Z,57.23
2023-03-12T05:19:49.934Z,57.26
2023-03-12T05:22:20.161Z,57.96
2023-03-12T05:24:48.056Z,57.52
2023-03-12T05:27:15.782Z,56.86
2023-03-12T05:29:46.321Z,56.56
2023-03-12T05:32:16.010Z,56.67
2023-03-12T05:34:44.020Z,56.24
2023-03-12T05:37:11.685Z,56.24
2023-03-12T05:39:41.159Z,56.30
2023-03-12T05:42:08.900Z,55.77
2023-03-12T05:44:36.628Z,56.70
2023-03-12T05:47:04.418Z,56.18
2023-03-12T05:49:35.617Z,56.00
2023-03-12T05:52:06.847Z,55.72
2023-03-12T05:54:35.281Z,56.09
2023-03-12T05:57:03.425Z,56.16
2023-03-12T05:59:34.346Z,56.13
2023-03-12T06:02:02.033Z,56.83
2023-03-12T06:04:31.041Z,56.45
2023-03-12T06:07:00.631Z,56.29
2023-03-12T06:09:28.585Z,56.47
2023-03-12T06:11:56.425Z,56.49
2023-03-12T06:14:24.310Z,56.70
2023-03-12T06:16:56.129Z,57.17
2023-03-12T06:19:24.502Z,57.10
2023-03-12T06:21:52.462Z,56.86
2023-03-12T06:24:30.038Z,58.77
2023-03-12T06:27:17.713Z,57.61
2023-03-12T06:29:49.499Z,56.79
2023-03-12T06:32:20.469Z,57.40
2023-03-12T06:34:48.816Z,57.58
2023-03-12T06:37:19.554Z,57.46
2023-03-12T06:39:52.479Z,57.09
2023-03-12T06:42:20.826Z,57.36
2023-03-12T06:44:49.196Z,57.55
2023-03-12T06:47:30.694Z,57.36
2023-03-12T06:49:58.570Z,57.54
2023-03-12T06:52:32.875Z,57.48
2023-03-12T06:55:36.845Z,57.63
2023-03-12T06:58:15.142Z,57.62
2023-03-12T07:00:45.131Z,57.50
2023-03-12T07:08:34.562Z,57.78
2023-03-12T07:11:03.998Z,57.76
2023-03-12T07:13:37.727Z,59.20
2023-03-12T07:16:06.429Z,58.57
2023-03-12T07:18:34.396Z,59.12
2023-03-12T07:21:24.682Z,59.40
2023-03-12T07:23:53.783Z,58.51
2023-03-12T07:26:23.077Z,58.58
2023-03-12T07:28:58.986Z,58.43
2023-03-12T07:31:34.800Z,59.23
2023-03-12T07:34:06.282Z,58.75
2023-03-12T07:36:34.872Z,58.90
2023-03-12T07:39:03.089Z,59.13
2023-03-12T07:41:32.848Z,59.45
2023-03-12T07:44:00.716Z,59.60
2023-03-12T07:46:28.581Z,59.58
2023-03-12T07:48:56.411Z,60.29
2023-03-12T07:51:28.289Z,60.13
2023-03-12T07:53:57.303Z,60.44
2023-03-12T07:56:25.190Z,60.42
2023-03-12T07:58:57.661Z,60.55
2023-03-12T08:01:32.226Z,60.84
2023-03-12T08:04:00.728Z,60.61
2023-03-12T08:06:28.970Z,61.54
2023-03-12T08:08:58.640Z,61.44
2023-03-12T08:11:36.037Z,62.51
2023-03-12T08:14:14.918Z,62.79
2023-03-12T08:16:47.718Z,62.64
2023-03-12T08:19:15.533Z,62.30
2023-03-12T08:21:51.259Z,63.48
2023-03-12T08:24:22.479Z,63.13
2023-03-12T08:26:50.788Z,63.25
2023-03-12T08:29:20.408Z,64.12
2023-03-12T08:32:03.758Z,64.40
2023-03-12T08:34:32.321Z,64.35
2023-03-12T08:37:00.006Z,65.09
2023-03-12T08:39:27.772Z,65.42
2023-03-12T08:41:55.730Z,65.66
2023-03-12T08:44:26.295Z,66.62
2023-03-12T08:46:58.010Z,66.71
2023-03-12T08:49:42.913Z,66.52
2023-03-12T08:52:10.934Z,66.67
2023-03-12T08:54:42.749Z,67.03
2023-03-12T08:57:18.153Z,67.25
2023-03-12T09:00:02.077Z,69.33
2023-03-12T09:02:43.681Z,68.11
2023-03-12T09:20:54.289Z,69.20
2023-03-12T09:35:12.274Z,69.89
2023-03-12T09:41:26.786Z,71.23
2023-03-12T09:44:18.291Z,70.42
2023-03-12T09:56:55.935Z,72.82
2023-03-12T10:10:44.990Z,74.05
2023-03-12T10:14:08.597Z,75.00
2023-03-12T10:29:21.519Z,74.29
2023-03-12T10:31:56.068Z,75.03
2023-03-12T10:34:29.640Z,74.67
2023-03-12T10:37:01.598Z,75.55
2023-03-12T10:39:29.477Z,75.33
2023-03-12T10:42:00.983Z,76.26
2023-03-12T10:44:30.508Z,75.98
2023-03-12T10:47:07.881Z,76.87
2023-03-12T10:49:37.092Z,76.17
2023-03-12T10:52:07.715Z,76.58
2023-03-12T10:54:37.519Z,76.40
2023-03-12T10:57:05.658Z,76.29
2023-03-12T10:59:36.804Z,77.30
2023-03-12T11:02:26.167Z,77.29
2023-03-12T11:04:54.535Z,77.13
2023-03-12T11:07:28.738Z,78.04
2023-03-12T11:10:22.182Z,79.88
2023-03-12T11:12:56.043Z,78.78
2023-03-12T11:15:28.116Z,78.15
2023-03-12T11:18:20.497Z,79.06
2023-03-12T11:20:50.123Z,78.01
2023-03-12T11:23:21.049Z,78.50
2023-03-12T11:25:56.510Z,79.34
2023-03-12T11:28:28.411Z,78.41
2023-03-12T11:30:59.263Z,79.78
2023-03-12T11:33:27.036Z,79.15
2023-03-12T11:36:09.094Z,79.29
2023-03-12T11:38:42.414Z,79.42
2023-03-12T11:41:24.940Z,80.55
2023-03-12T11:44:08.808Z,80.14
2023-03-12T11:46:51.502Z,80.55
2023-03-12T11:49:33.408Z,81.44
2023-03-12T11:52:05.666Z,80.94
2023-03-12T11:54:59.742Z,82.04
2023-03-12T11:57:36.531Z,81.32
2023-03-12T12:00:13.491Z,82.42
2023-03-12T12:03:08.957Z,81.45
2023-03-12T12:05:49.841Z,80.60
2023-03-12T12:08:32.971Z,81.15
2023-03-12T12:11:06.435Z,81.80
2023-03-12T12:13:43.466Z,82.42
2023-03-12T12:16:24.633Z,81.13
2023-03-12T12:19:04.529Z,81.60
2023-03-12T12:21:53.700Z,82.24
2023-03-12T12:24:36.260Z,81.25
2023-03-12T12:27:16.099Z,80.96
2023-03-12T12:30:11.658Z,81.23
2023-03-12T12:33:01.084Z,81.94
2023-03-12T12:35:36.542Z,81.13
2023-03-12T12:38:10.264Z,81.22
2023-03-12T12:40:42.128Z,81.64
2023-03-12T12:43:28.070Z,81.35
2023-03-12T12:45:59.033Z,81.05
2023-03-12T12:48:32.523Z,81.29
2023-03-12T12:51:04.212Z,81.67
2023-03-12T12:53:41.917Z,81.50
2023-03-12T12:56:19.344Z,81.52
2023-03-12T12:59:04.049Z,81.62
2023-03-12T13:01:32.341Z,80.99
2023-03-12T13:04:05.527Z,80.99
2023-03-12T13:07:03.458Z,82.00
2023-03-12T13:09:38.419Z,81.60
2023-03-12T13:12:28.559Z,81.33
2023-03-12T13:14:58.300Z,80.06
2023-03-12T13:17:31.693Z,80.18
2023-03-12T13:20:15.377Z,80.86
2023-03-12T13:23:04.463Z,79.58
2023-03-12T13:25:47.550Z,80.02
2023-03-12T13:28:35.843Z,80.98
2023-03-12T13:31:25.794Z,80.32
2023-03-12T13:33:57.504Z,80.31
2023-03-12T13:36:28.490Z,80.46
2023-03-12T13:39:02.585Z,80.88
2023-03-12T13:41:36.846Z,80.80
2023-03-12T13:44:33.018Z,80.12
2023-03-12T13:47:02.501Z,79.78
2023-03-12T13:49:38.008Z,79.86
2023-03-12T13:52:23.406Z,79.13
2023-03-12T13:55:01.881Z,79.03
2023-03-12T13:57:41.151Z,78.78
2023-03-12T14:00:18.243Z,78.28
2023-03-12T14:02:50.733Z,77.75
2023-03-12T14:05:20.685Z,77.39
2023-03-12T14:08:04.926Z,77.27
2023-03-12T14:10:46.464Z,76.69
2023-03-12T14:13:29.712Z,76.57
2023-03-12T14:16:06.080Z,76.56
2023-03-12T14:18:40.044Z,76.46
2023-03-12T14:21:10.797Z,76.24
2023-03-12T14:23:41.815Z,76.26
2023-03-12T14:26:20.548Z,76.81
2023-03-12T14:28:58.754Z,77.16
2023-03-12T14:31:26.971Z,76.85
2023-03-12T14:33:59.693Z,76.86
2023-03-12T14:36:28.875Z,78.24
2023-03-12T14:39:01.949Z,77.73
2023-03-12T14:41:36.580Z,77.81
2023-03-12T14:44:06.562Z,77.61
2023-03-12T14:46:34.201Z,77.84
2023-03-12T14:49:01.913Z,77.48
2023-03-12T14:51:31.953Z,78.11
2023-03-12T14:54:05.009Z,77.63
2023-03-12T14:56:36.016Z,77.98
2023-03-12T14:59:22.581Z,77.21
2023-03-12T15:01:50.261Z,77.14
2023-03-12T15:04:20.541Z,77.84
2023-03-12T15:06:50.815Z,78.00
2023-03-12T15:09:22.095Z,78.31
2023-03-12T15:11:56.508Z,78.03
2023-03-12T15:14:25.903Z,77.56
2023-03-12T15:16:53.880Z,77.68
2023-03-12T15:19:24.250Z,78.05
2023-03-12T15:21:52.065Z,78.19
2023-03-12T15:24:19.747Z,77.61
2023-03-12T15:26:47.404Z,77.99
2023-03-12T15:29:27.326Z,78.09
2023-03-12T15:31:57.016Z,77.93
2023-03-12T15:34:32.267Z,77.73
2023-03-12T15:37:01.610Z,77.67
2023-03-12T15:39:32.498Z,77.25
2023-03-12T15:42:03.566Z,77.68
2023-03-12T15:44:43.909Z,78.57
2023-03-12T15:47:15.111Z,77.46
2023-03-12T15:49:43.242Z,77.24
2023-03-12T15:52:29.168Z,76.84
2023-03-12T15:55:20.467Z,77.28
2023-03-12T15:57:49.876Z,77.25
2023-03-12T16:00:25.976Z,77.22
2023-03-12T16:02:56.651Z,76.86
2023-03-12T16:05:28.151Z,76.72
2023-03-12T16:07:56.167Z,76.40
2023-03-12T16:10:26.774Z,76.72
2023-03-12T16:13:02.222Z,77.42
2023-03-12T16:15:34.411Z,77.50
2023-03-12T16:18:02.094Z,76.94
2023-03-12T16:20:30.073Z,77.06
2023-03-12T16:22:57.919Z,76.80
2023-03-12T16:25:25.771Z,76.34
2023-03-12T16:27:56.277Z,76.96
2023-03-12T16:30:27.143Z,76.98
2023-03-12T16:32:56.382Z,76.46
2023-03-12T16:35:24.238Z,76.51
2023-03-12T16:37:51.878Z,76.75
2023-03-12T16:40:32.569Z,76.32
2023-03-12T16:43:02.771Z,76.32
2023-03-12T16:45:31.874Z,76.11
2023-03-12T16:48:02.615Z,76.65
2023-03-12T16:50:30.899Z,76.55
2023-03-12T16:52:59.764Z,76.71
2023-03-12T16:55:30.542Z,76.74
2023-03-12T16:58:01.746Z,76.79
2023-03-12T17:00:31.485Z,76.48
2023-03-12T17:03:01.033Z,76.33
2023-03-12T17:05:30.719Z,76.09
2023-03-12T17:07:59.359Z,76.14
2023-03-12T17:10:27.286Z,76.03
2023-03-12T17:12:56.801Z,76.48
2023-03-12T17:15:27.526Z,76.66
2023-03-12T17:17:56.814Z,76.48
2023-03-12T17:20:25.900Z,76.31
2023-03-12T17:22:53.761Z,76.07
2023-03-12T17:25:23.469Z,75.71
2023-03-12T17:27:51.560Z,75.79
2023-03-12T17:30:19.269Z,75.81
2023-03-12T17:32:47.250Z,75.58
2023-03-12T17:35:14.926Z,75.75
2023-03-12T17:44:00.186Z,74.91
2023-03-12T18:39:09.727Z,72.82
2023-03-12T18:41:41.468Z,73.01
2023-03-12T18:44:14.898Z,72.95
2023-03-12T19:00:33.136Z,72.53
2023-03-12T19:03:11.296Z,72.65
2023-03-12T19:05:44.697Z,72.53
2023-03-12T19:08:14.265Z,72.27
2023-03-12T19:10:49.461Z,72.51
2023-03-12T19:16:29.585Z,72.14
2023-03-12T19:19:08.274Z,72.56
2023-03-12T19:21:37.411Z,72.43
2023-03-12T19:24:19.810Z,72.63
2023-03-12T19:26:53.296Z,71.81
2023-03-12T19:29:22.013Z,72.73
2023-03-12T19:31:51.756Z,72.63
2023-03-12T19:34:26.429Z,72.50
2023-03-12T19:40:15.827Z,72.08
2023-03-12T19:43:04.234Z,72.15
2023-03-12T19:45:42.599Z,71.99
2023-03-12T19:48:30.060Z,71.83
2023-03-12T19:50:59.087Z,71.12
2023-03-12T20:02:06.783Z,70.84
2023-03-12T20:07:19.621Z,70.47
2023-03-12T20:51:07.727Z,71.68
2023-03-12T21:23:18.285Z,70.96
2023-03-12T21:26:57.402Z,69.51
2023-03-12T21:30:34.554Z,69.50
2023-03-12T21:34:36.579Z,69.96
2023-03-12T21:37:30.196Z,68.59
2023-03-12T21:43:27.640Z,69.24
2023-03-12T22:42:13.767Z,68.56
2023-03-12T22:44:42.144Z,68.76
2023-03-12T22:47:10.222Z,67.75
2023-03-12T22:49:38.060Z,68.45
2023-03-12T22:52:06.393Z,68.59
2023-03-12T22:54:35.022Z,68.86
2023-03-12T22:57:02.641Z,69.43
2023-03-12T22:59:31.948Z,68.56
2023-03-12T23:01:59.725Z,68.89
2023-03-12T23:04:27.456Z,69.49
2023-03-12T23:07:04.432Z,68.25
2023-03-12T23:09:39.156Z,68.99
2023-03-12T23:12:07.332Z,68.81
2023-03-12T23:14:36.488Z,68.79
2023-03-12T23:17:04.205Z,68.84
2023-03-12T23:19:33.182Z,68.97
2023-03-12T23:22:01.189Z,68.76
2023-03-12T23:24:30.971Z,68.25
2023-03-12T23:26:58.743Z,68.04
2023-03-12T23:29:26.916Z,69.06
2023-03-12T23:31:56.176Z,68.48
2023-03-12T23:34:24.014Z,68.95
2023-03-12T23:36:51.812Z,68.49
2023-03-12T23:39:20.030Z,68.85
2023-03-12T23:41:47.896Z,68.99
2023-03-12T23:44:15.608Z,67.50
2023-03-12T23:46:44.919Z,66.76
2023-03-12T23:49:14.125Z,66.23
2023-03-12T23:51:41.913Z,66.36
2023-03-12T23:54:09.722Z,66.11
2023-03-12T23:56:39.077Z,66.11
2023-03-12T23:59:08.330Z,66.11
